Thargomindah, Australia
Current Conditions -  °F | °C
As of 6:00 PM on Sunday 26 Oct 2014 (Local Time) from YBCV Reporting Station
Clear Clear  
Wind Chill: 97°   Ceiling: Unl
Heat Index: 97°   Visibility: 6mi
Dew Point: 36°   Wind: 5mph
Humidity: 12%   Direction: 190°S
Pressure: 29.85"   Gusts: NA
Location:  28°S, 143.82°E
Report Text: YBCV 260800Z AUTO 19004KT 9999 // NCD 36/02 Q1011
Loading
Personal Weather Stations






























Interactive Weather Map New forecast layout! Learn more

10-Day Weather Forecast

Advertisements
Track Severe Weather on mobile